createdAt,value
2018-09-06T00:00:02.775Z,21.03
2018-09-06T00:01:02.761Z,20.98
2018-09-06T00:02:02.745Z,20.97
2018-09-06T00:03:02.732Z,20.98
2018-09-06T00:04:02.721Z,20.90
2018-09-06T00:05:02.833Z,20.93
2018-09-06T00:06:02.697Z,20.92
2018-09-06T00:07:02.689Z,21.01
2018-09-06T00:08:02.677Z,20.92
2018-09-06T00:09:02.668Z,20.95
2018-09-06T00:10:02.653Z,20.90
2018-09-06T00:11:02.639Z,20.90
2018-09-06T00:12:02.627Z,20.93
2018-09-06T00:13:02.617Z,20.97
2018-09-06T00:14:02.605Z,20.95
2018-09-06T00:15:02.593Z,20.88
2018-09-06T00:16:02.591Z,20.89
2018-09-06T00:17:02.570Z,20.85
2018-09-06T00:18:02.560Z,20.83
2018-09-06T00:19:02.546Z,20.79
2018-09-06T00:20:02.532Z,20.73
2018-09-06T00:21:02.521Z,20.70
2018-09-06T00:22:02.518Z,20.70
2018-09-06T00:23:02.499Z,20.64
2018-09-06T00:24:02.486Z,20.73
2018-09-06T00:25:02.479Z,20.60
2018-09-06T00:26:02.513Z,20.61
2018-09-06T00:27:02.454Z,20.58
2018-09-06T00:28:02.439Z,20.55
2018-09-06T00:29:02.429Z,20.56
2018-09-06T00:30:02.417Z,20.55
2018-09-06T00:31:02.406Z,20.58
2018-09-06T00:32:02.401Z,20.63
2018-09-06T00:33:02.384Z,20.64
2018-09-06T00:34:02.371Z,20.53
2018-09-06T00:35:02.364Z,20.53
2018-09-06T00:36:02.351Z,20.60
2018-09-06T00:37:02.334Z,20.65
2018-09-06T00:38:02.324Z,20.61
2018-09-06T00:39:02.317Z,20.60
2018-09-06T00:40:02.304Z,20.56
2018-09-06T00:41:02.289Z,20.53
2018-09-06T00:42:02.278Z,20.55
2018-09-06T00:43:02.270Z,20.58
2018-09-06T00:44:02.257Z,20.49
2018-09-06T00:45:02.242Z,20.55
2018-09-06T00:46:02.231Z,20.58
2018-09-06T00:47:02.225Z,20.52
2018-09-06T00:48:02.208Z,20.53
2018-09-06T00:49:02.192Z,20.50
2018-09-06T00:50:02.183Z,20.55
2018-09-06T00:51:02.170Z,20.52
2018-09-06T00:52:02.160Z,20.53
2018-09-06T00:53:02.146Z,20.49
2018-09-06T00:54:02.135Z,20.55
2018-09-06T00:55:02.124Z,20.52
2018-09-06T00:56:02.109Z,20.55
2018-09-06T00:57:02.098Z,20.53
2018-09-06T00:58:02.087Z,20.46
2018-09-06T00:59:02.075Z,20.49
2018-09-06T01:00:02.064Z,20.46
2018-09-06T01:01:02.053Z,20.44
2018-09-06T01:02:02.041Z,20.41
2018-09-06T01:03:02.027Z,20.23
2018-09-06T01:04:02.015Z,20.27
2018-09-06T01:05:02.004Z,20.19
2018-09-06T01:06:01.999Z,20.17
2018-09-06T01:07:01.980Z,20.15
2018-09-06T01:08:01.968Z,20.14
2018-09-06T01:09:01.960Z,20.12
2018-09-06T01:10:01.952Z,20.09
2018-09-06T01:11:01.934Z,20.09
2018-09-06T01:12:01.920Z,20.09
2018-09-06T01:13:01.909Z,20.05
2018-09-06T01:14:01.898Z,20.07
2018-09-06T01:15:01.891Z,20.09
2018-09-06T01:16:01.875Z,20.09
2018-09-06T01:17:01.861Z,20.07
2018-09-06T01:18:01.849Z,20.11
2018-09-06T01:19:01.841Z,20.12
2018-09-06T01:20:01.824Z,20.02
2018-09-06T01:21:01.814Z,20.12
2018-09-06T01:22:01.801Z,20.11
2018-09-06T01:23:01.791Z,20.09
2018-09-06T01:24:01.776Z,20.05
2018-09-06T01:25:01.765Z,19.96
2018-09-06T01:26:01.757Z,19.93
2018-09-06T01:27:01.740Z,19.92
2018-09-06T01:28:01.729Z,19.87
2018-09-06T01:29:01.716Z,19.84
2018-09-06T01:30:01.709Z,19.90
2018-09-06T01:31:01.698Z,19.86
2018-09-06T01:32:01.680Z,19.89
2018-09-06T01:33:01.668Z,19.92
2018-09-06T01:34:01.661Z,19.92
2018-09-06T01:35:01.643Z,19.92
2018-09-06T01:36:01.633Z,19.90
2018-09-06T01:37:01.630Z,19.93
2018-09-06T01:38:01.612Z,19.97
2018-09-06T01:39:01.605Z,19.89
2018-09-06T01:40:01.586Z,19.82
2018-09-06T01:41:01.576Z,19.77
2018-09-06T01:42:01.562Z,19.72
2018-09-06T01:43:01.549Z,19.57
2018-09-06T01:44:01.542Z,19.56
2018-09-06T01:45:01.526Z,19.52
2018-09-06T01:46:01.516Z,19.49
2018-09-06T01:47:01.501Z,19.50
2018-09-06T01:48:01.490Z,19.49
2018-09-06T01:49:01.482Z,19.49
2018-09-06T01:50:01.463Z,19.56
2018-09-06T01:51:01.452Z,19.67
2018-09-06T01:52:01.441Z,19.60
2018-09-06T01:53:01.428Z,19.68
2018-09-06T01:54:01.415Z,19.67
2018-09-06T01:55:01.402Z,19.64
2018-09-06T01:56:01.398Z,19.64
2018-09-06T01:57:01.380Z,19.67
2018-09-06T01:58:01.369Z,19.62
2018-09-06T01:59:01.356Z,19.70
2018-09-06T02:00:01.343Z,19.64
2018-09-06T02:01:01.328Z,19.67
2018-09-06T02:02:01.318Z,19.63
2018-09-06T02:03:01.307Z,19.68
2018-09-06T02:04:01.292Z,19.71
2018-09-06T02:05:01.280Z,19.64
2018-09-06T02:06:01.266Z,19.59
2018-09-06T02:07:01.256Z,19.63
2018-09-06T02:08:01.245Z,19.67
2018-09-06T02:09:01.231Z,19.56
2018-09-06T02:10:01.219Z,19.52
2018-09-06T02:11:01.208Z,19.50
2018-09-06T02:12:01.196Z,19.52
2018-09-06T02:13:01.184Z,19.57
2018-09-06T02:14:01.168Z,19.63
2018-09-06T02:15:01.158Z,19.59
2018-09-06T02:16:01.143Z,19.60
2018-09-06T02:17:01.132Z,19.63
2018-09-06T02:18:01.120Z,19.67
2018-09-06T02:19:01.107Z,19.70
2018-09-06T02:20:01.100Z,19.70
2018-09-06T02:21:01.084Z,19.64
2018-09-06T02:22:01.070Z,19.64
2018-09-06T02:23:01.062Z,19.64
2018-09-06T02:24:01.043Z,19.64
2018-09-06T02:25:01.032Z,19.68
2018-09-06T02:26:01.021Z,19.60
2018-09-06T02:27:01.011Z,19.63
2018-09-06T02:28:00.995Z,19.59
2018-09-06T02:29:00.983Z,19.47
2018-09-06T02:30:00.973Z,19.53
2018-09-06T02:31:00.962Z,19.53
2018-09-06T02:32:00.948Z,19.59
2018-09-06T02:33:00.935Z,19.56
2018-09-06T02:34:00.922Z,19.52
2018-09-06T02:35:00.912Z,19.53
2018-09-06T02:36:00.907Z,19.50
2018-09-06T02:37:00.886Z,19.52
2018-09-06T02:38:00.874Z,19.53
2018-09-06T02:39:00.862Z,19.59
2018-09-06T02:40:00.850Z,19.59
2018-09-06T02:41:00.838Z,19.64
2018-09-06T02:42:00.825Z,19.63
2018-09-06T02:43:00.812Z,19.67
2018-09-06T02:44:00.800Z,19.64
2018-09-06T02:45:00.786Z,19.64
2018-09-06T02:46:00.775Z,19.63
2018-09-06T02:47:00.766Z,19.63
2018-09-06T02:48:00.749Z,19.63
2018-09-06T02:49:00.736Z,19.64
2018-09-06T02:50:00.725Z,19.62
2018-09-06T02:51:00.717Z,19.62
2018-09-06T02:52:00.700Z,19.63
2018-09-06T02:53:00.689Z,19.53
2018-09-06T02:54:00.729Z,19.47
2018-09-06T02:55:00.663Z,19.49
2018-09-06T02:56:00.652Z,19.50
2018-09-06T02:57:00.638Z,19.53
2018-09-06T02:58:00.630Z,19.53
2018-09-06T02:59:00.614Z,19.52
2018-09-06T03:00:00.603Z,19.47
2018-09-06T03:01:00.589Z,19.49
2018-09-06T03:02:00.580Z,19.45
2018-09-06T03:03:00.570Z,19.45
2018-09-06T03:04:00.556Z,19.41
2018-09-06T03:05:00.551Z,19.52
2018-09-06T03:06:00.526Z,19.37
2018-09-06T03:07:00.515Z,19.39
2018-09-06T03:08:00.505Z,19.37
2018-09-06T03:09:00.489Z,19.37
2018-09-06T03:10:00.478Z,19.37
2018-09-06T03:11:00.465Z,19.41
2018-09-06T03:12:00.453Z,19.31
2018-09-06T03:13:00.442Z,19.27
2018-09-06T03:14:00.427Z,19.23
2018-09-06T03:15:00.419Z,19.23
2018-09-06T03:16:00.400Z,19.26
2018-09-06T03:17:00.394Z,19.24
2018-09-06T03:18:00.387Z,19.26
2018-09-06T03:19:00.367Z,19.27
2018-09-06T03:20:00.367Z,19.30
2018-09-06T03:21:00.341Z,19.35
2018-09-06T03:22:00.328Z,19.24
2018-09-06T03:23:00.321Z,19.30
2018-09-06T03:24:00.303Z,19.26
2018-09-06T03:25:00.289Z,19.26
2018-09-06T03:26:00.277Z,19.16
2018-09-06T03:27:00.266Z,19.24
2018-09-06T03:28:00.257Z,19.23
2018-09-06T03:29:00.241Z,19.23
2018-09-06T03:30:00.232Z,19.20
2018-09-06T03:31:00.217Z,19.22
2018-09-06T03:32:00.202Z,19.08
2018-09-06T03:33:00.191Z,19.12
2018-09-06T03:34:00.180Z,19.09
2018-09-06T03:35:00.170Z,19.09
2018-09-06T03:36:00.279Z,19.12
2018-09-06T03:37:00.140Z,19.12
2018-09-06T03:38:00.128Z,19.12
2018-09-06T03:39:00.115Z,19.13
2018-09-06T03:40:00.105Z,19.09
2018-09-06T03:41:00.091Z,19.01
2018-09-06T03:42:00.078Z,19.12
2018-09-06T03:43:00.076Z,19.08
2018-09-06T03:44:00.056Z,19.09
2018-09-06T03:45:00.041Z,19.04
2018-09-06T03:46:00.027Z,19.01
2018-09-06T03:47:00.015Z,19.07
2018-09-06T03:48:00.009Z,19.04
2018-09-06T03:48:59.990Z,18.98
2018-09-06T03:49:59.980Z,19.01
2018-09-06T03:50:59.967Z,19.04
2018-09-06T03:51:59.950Z,19.01
2018-09-06T03:52:59.945Z,18.98
2018-09-06T03:53:59.932Z,18.96
2018-09-06T03:54:59.912Z,19.01
2018-09-06T03:55:59.902Z,18.93
2018-09-06T03:56:59.893Z,18.94
2018-09-06T03:57:59.877Z,19.00
2018-09-06T03:58:59.862Z,18.93
2018-09-06T03:59:59.851Z,18.93
2018-09-06T04:00:59.854Z,18.93
2018-09-06T04:01:59.826Z,18.96
2018-09-06T04:02:59.813Z,18.94
2018-09-06T04:03:59.798Z,18.96
2018-09-06T04:04:59.785Z,18.97
2018-09-06T04:05:59.775Z,18.96
2018-09-06T04:06:59.761Z,18.93
2018-09-06T04:07:59.749Z,18.94
2018-09-06T04:08:59.740Z,18.98
2018-09-06T04:09:59.724Z,18.97
2018-09-06T04:10:59.710Z,18.93
2018-09-06T04:11:59.697Z,18.93
2018-09-06T04:12:59.685Z,18.85
2018-09-06T04:13:59.671Z,18.89
2018-09-06T04:14:59.659Z,18.93
2018-09-06T04:15:59.645Z,18.79
2018-09-06T04:16:59.635Z,18.79
2018-09-06T04:17:59.625Z,18.79
2018-09-06T04:18:59.608Z,18.81
2018-09-06T04:19:59.600Z,18.81
2018-09-06T04:20:59.582Z,18.78
2018-09-06T04:21:59.570Z,18.81
2018-09-06T04:22:59.561Z,18.86
2018-09-06T04:23:59.549Z,18.79
2018-09-06T04:24:59.537Z,18.78
2018-09-06T04:25:59.518Z,18.83
2018-09-06T04:26:59.522Z,18.81
2018-09-06T04:27:59.494Z,18.76
2018-09-06T04:28:59.487Z,18.75
2018-09-06T04:29:59.468Z,18.71
2018-09-06T04:30:59.459Z,18.83
2018-09-06T04:31:59.442Z,18.76
2018-09-06T04:32:59.428Z,18.74
2018-09-06T04:33:59.418Z,18.76
2018-09-06T04:34:59.404Z,18.81
2018-09-06T04:35:59.448Z,18.81
2018-09-06T04:36:59.381Z,18.88
2018-09-06T04:37:59.370Z,18.93
2018-09-06T04:38:59.358Z,18.94
2018-09-06T04:39:59.339Z,18.96
2018-09-06T04:40:59.327Z,19.01
2018-09-06T04:41:59.312Z,18.94
2018-09-06T04:42:59.301Z,19.05
2018-09-06T04:43:59.287Z,19.07
2018-09-06T04:44:59.276Z,19.05
2018-09-06T04:45:59.263Z,18.97
2018-09-06T04:46:59.251Z,19.00
2018-09-06T04:47:59.241Z,18.97
2018-09-06T04:48:59.223Z,18.94
2018-09-06T04:49:59.211Z,19.01
2018-09-06T04:50:59.203Z,19.01
2018-09-06T04:51:59.189Z,19.05
2018-09-06T04:52:59.175Z,18.96
2018-09-06T04:53:59.163Z,19.00
2018-09-06T04:54:59.149Z,18.97
2018-09-06T04:55:59.137Z,19.00
2018-09-06T04:56:59.123Z,19.00
2018-09-06T04:57:59.110Z,18.98
2018-09-06T04:58:59.101Z,19.01
2018-09-06T04:59:59.086Z,19.01
2018-09-06T05:00:59.080Z,19.07
2018-09-06T05:01:59.058Z,19.01
2018-09-06T05:02:59.047Z,19.00
2018-09-06T05:03:59.032Z,18.97
2018-09-06T05:04:59.020Z,19.00
2018-09-06T05:05:59.009Z,19.00
2018-09-06T05:06:59.009Z,18.94
2018-09-06T05:07:58.983Z,19.08
2018-09-06T05:08:58.971Z,19.04
2018-09-06T05:09:58.958Z,19.04
2018-09-06T05:10:58.950Z,19.05
2018-09-06T05:11:58.934Z,18.97
2018-09-06T05:12:58.923Z,19.01
2018-09-06T05:13:58.905Z,19.04
2018-09-06T05:14:58.897Z,19.04
2018-09-06T05:15:58.884Z,19.09
2018-09-06T05:16:58.868Z,19.08
2018-09-06T05:17:58.855Z,19.17
2018-09-06T05:18:58.843Z,19.05
2018-09-06T05:19:58.830Z,19.09
2018-09-06T05:20:58.817Z,19.07
2018-09-06T05:21:58.813Z,19.17
2018-09-06T05:22:58.795Z,19.16
2018-09-06T05:23:58.779Z,19.17
2018-09-06T05:24:58.765Z,19.13
2018-09-06T05:25:58.756Z,19.24
2018-09-06T05:26:58.740Z,19.24
2018-09-06T05:27:58.727Z,19.31
2018-09-06T05:28:58.717Z,19.27
2018-09-06T05:29:58.710Z,19.34
2018-09-06T05:30:58.692Z,19.27
2018-09-06T05:31:58.679Z,19.37
2018-09-06T05:32:58.667Z,19.34
2018-09-06T05:33:58.651Z,19.42
2018-09-06T05:34:58.647Z,19.47
2018-09-06T05:35:58.633Z,19.47
2018-09-06T05:36:58.622Z,19.52
2018-09-06T05:37:58.603Z,19.57
2018-09-06T05:38:58.590Z,19.50
2018-09-06T05:39:58.578Z,19.62
2018-09-06T05:40:58.566Z,19.62
2018-09-06T05:41:58.556Z,19.63
2018-09-06T05:42:58.546Z,19.60
2018-09-06T05:43:58.529Z,19.64
2018-09-06T05:44:58.520Z,19.64
2018-09-06T05:45:58.505Z,19.60
2018-09-06T05:46:58.501Z,19.59
2018-09-06T05:47:58.479Z,19.70
2018-09-06T05:48:58.469Z,19.63
2018-09-06T05:49:58.456Z,19.68
2018-09-06T05:50:58.444Z,19.70
2018-09-06T05:51:58.431Z,19.72
2018-09-06T05:52:58.422Z,19.71
2018-09-06T05:53:58.410Z,19.75
2018-09-06T05:54:58.400Z,19.77
2018-09-06T05:55:58.385Z,19.77
2018-09-06T05:56:58.372Z,19.79
2018-09-06T05:57:58.411Z,19.82
2018-09-06T05:58:58.345Z,19.86
2018-09-06T05:59:58.395Z,19.84
2018-09-06T06:00:58.320Z,19.87
2018-09-06T06:01:58.310Z,19.82
2018-09-06T06:02:58.304Z,19.79
2018-09-06T06:03:58.288Z,19.71
2018-09-06T06:04:58.270Z,19.86
2018-09-06T06:05:58.268Z,19.87
2018-09-06T06:06:58.259Z,19.86
2018-09-06T06:07:58.238Z,19.86
2018-09-06T06:08:58.229Z,19.90
2018-09-06T06:09:58.214Z,19.84
2018-09-06T06:10:58.200Z,19.68
2018-09-06T06:11:58.262Z,19.54
2018-09-06T06:12:58.179Z,19.42
2018-09-06T06:13:58.165Z,19.45
2018-09-06T06:14:58.160Z,19.45
2018-09-06T06:15:58.198Z,19.41
2018-09-06T06:16:58.137Z,19.07
2018-09-06T06:17:58.114Z,18.97
2018-09-06T06:18:58.103Z,18.98
2018-09-06T06:19:58.160Z,19.01
2018-09-06T06:20:58.076Z,19.07
2018-09-06T06:21:58.071Z,18.93
2018-09-06T06:22:58.051Z,19.01
2018-09-06T06:23:58.044Z,19.05
2018-09-06T06:24:58.026Z,19.13
2018-09-06T06:25:58.085Z,19.16
2018-09-06T06:26:58.004Z,19.15
2018-09-06T06:27:57.991Z,19.26
2018-09-06T06:28:57.986Z,19.30
2018-09-06T06:29:57.966Z,19.31
2018-09-06T06:30:57.955Z,19.34
2018-09-06T06:31:57.983Z,19.39
2018-09-06T06:32:57.931Z,19.38
2018-09-06T06:33:57.992Z,19.39
2018-09-06T06:34:57.907Z,19.31
2018-09-06T06:35:57.891Z,19.30
2018-09-06T06:36:57.881Z,19.30
2018-09-06T06:37:57.879Z,19.30
2018-09-06T06:38:57.863Z,19.39
2018-09-06T06:39:57.884Z,19.52
2018-09-06T06:40:57.832Z,19.52
2018-09-06T06:41:57.821Z,19.68
2018-09-06T06:42:57.814Z,19.92
2018-09-06T06:43:57.798Z,19.89
2018-09-06T06:44:57.785Z,19.97
2018-09-06T06:45:57.775Z,20.02
2018-09-06T06:46:57.760Z,20.29
2018-09-06T06:47:57.759Z,20.30
2018-09-06T06:48:57.754Z,20.23
2018-09-06T06:49:57.729Z,20.25
2018-09-06T06:50:57.715Z,20.37
2018-09-06T06:51:57.700Z,20.52
2018-09-06T06:52:57.689Z,20.65
2018-09-06T06:53:57.681Z,20.77
2018-09-06T06:54:57.666Z,20.93
2018-09-06T06:55:57.663Z,21.35
2018-09-06T06:56:57.648Z,21.66
2018-09-06T06:57:57.632Z,22.04
2018-09-06T06:58:57.623Z,22.12
2018-09-06T06:59:57.615Z,21.90
2018-09-06T07:00:57.663Z,21.82
2018-09-06T07:01:57.589Z,21.77
2018-09-06T07:02:57.583Z,21.78
2018-09-06T07:03:57.572Z,22.13
2018-09-06T07:04:57.560Z,22.23
2018-09-06T07:05:57.551Z,22.48
2018-09-06T07:06:57.615Z,22.61
2018-09-06T07:07:57.530Z,22.19
2018-09-06T07:08:57.524Z,21.91
2018-09-06T07:09:57.514Z,22.00
2018-09-06T07:10:57.501Z,22.19
2018-09-06T07:11:57.498Z,22.09
2018-09-06T07:12:57.481Z,22.13
2018-09-06T07:13:57.472Z,22.27
2018-09-06T07:14:57.466Z,22.36
2018-09-06T07:15:57.452Z,22.89
2018-09-06T07:16:57.443Z,23.37
2018-09-06T07:17:57.438Z,23.54
2018-09-06T07:18:57.431Z,23.74
2018-09-06T07:19:57.415Z,23.97
2018-09-06T07:20:57.409Z,24.03
2018-09-06T07:21:57.400Z,24.31
2018-09-06T07:22:57.391Z,24.56
2018-09-06T07:23:57.395Z,24.78
2018-09-06T07:24:57.385Z,25.00
2018-09-06T07:25:57.369Z,24.55
2018-09-06T07:26:57.366Z,24.04
2018-09-06T07:27:57.355Z,24.03
2018-09-06T07:28:57.346Z,23.86
2018-09-06T07:29:57.338Z,23.82
2018-09-06T07:30:57.329Z,23.81
2018-09-06T07:31:57.322Z,23.61
2018-09-06T07:32:57.314Z,23.61
2018-09-06T07:33:57.309Z,23.49
2018-09-06T07:34:57.308Z,24.10
2018-09-06T07:35:57.295Z,23.97
2018-09-06T07:36:57.287Z,24.06
2018-09-06T07:37:57.277Z,24.44
2018-09-06T07:38:57.277Z,24.25
2018-09-06T07:39:57.259Z,24.68
2018-09-06T07:40:57.251Z,25.33
2018-09-06T07:41:57.248Z,25.21
2018-09-06T07:42:57.241Z,25.58
2018-09-06T07:43:57.238Z,25.77
2018-09-06T07:44:57.224Z,25.96
2018-09-06T07:45:57.225Z,26.08
2018-09-06T07:46:57.292Z,25.68
2018-09-06T07:47:57.203Z,25.19
2018-09-06T07:48:57.193Z,25.04
2018-09-06T07:49:57.212Z,24.89
2018-09-06T07:50:57.186Z,24.78
2018-09-06T07:51:57.173Z,24.65
2018-09-06T07:52:57.167Z,24.45
2018-09-06T07:53:57.158Z,24.29
2018-09-06T07:54:57.149Z,24.21
2018-09-06T07:55:57.154Z,24.06
2018-09-06T07:56:57.137Z,23.98
2018-09-06T07:57:57.126Z,23.79
2018-09-06T07:58:57.117Z,23.76
2018-09-06T07:59:57.116Z,23.33
2018-09-06T08:00:57.104Z,23.26
2018-09-06T08:01:57.099Z,23.23
2018-09-06T08:02:57.082Z,23.18
2018-09-06T08:03:57.076Z,23.18
2018-09-06T08:04:57.072Z,23.26
2018-09-06T08:05:57.058Z,23.23
2018-09-06T08:06:57.053Z,23.08
2018-09-06T08:07:57.045Z,23.06
2018-09-06T08:08:57.032Z,23.11
2018-09-06T08:09:57.022Z,23.13
2018-09-06T08:10:57.013Z,23.04
2018-09-06T08:11:57.006Z,23.03
2018-09-06T08:12:56.996Z,23.10
2018-09-06T08:13:56.993Z,23.10
2018-09-06T08:14:56.977Z,23.06
2018-09-06T08:15:56.968Z,23.10
2018-09-06T08:16:56.957Z,23.03
2018-09-06T08:17:56.948Z,23.06
2018-09-06T08:18:57.016Z,23.03
2018-09-06T08:19:56.929Z,23.06
2018-09-06T08:20:56.920Z,23.10
2018-09-06T08:21:56.920Z,22.93
2018-09-06T08:22:56.902Z,22.91
2018-09-06T08:23:56.899Z,22.92
2018-09-06T08:24:56.882Z,22.76
2018-09-06T08:25:56.872Z,22.92
2018-09-06T08:26:56.861Z,22.89
2018-09-06T08:27:56.851Z,22.77
2018-09-06T08:28:56.842Z,22.76
2018-09-06T08:29:56.861Z,22.89
2018-09-06T08:30:56.925Z,22.81
2018-09-06T08:31:56.817Z,22.81
2018-09-06T08:32:56.803Z,22.68
2018-09-06T08:33:56.797Z,22.61
2018-09-06T08:34:56.785Z,22.59
2018-09-06T08:35:56.774Z,22.61
2018-09-06T08:36:56.812Z,22.62
2018-09-06T08:37:56.757Z,22.76
2018-09-06T08:38:56.746Z,22.73
2018-09-06T08:39:56.759Z,22.77
2018-09-06T08:40:56.727Z,22.76
2018-09-06T08:41:56.716Z,22.83
2018-09-06T08:42:56.706Z,22.89
2018-09-06T08:43:56.696Z,22.92
2018-09-06T08:44:56.685Z,22.98
2018-09-06T08:45:56.675Z,22.98
2018-09-06T08:46:56.665Z,23.08
2018-09-06T08:47:56.664Z,23.06
2018-09-06T08:48:56.651Z,23.06
2018-09-06T08:49:56.645Z,22.98
2018-09-06T08:50:56.626Z,22.98
2018-09-06T08:51:56.656Z,22.93
2018-09-06T08:52:56.613Z,22.83
2018-09-06T08:53:56.601Z,22.80
2018-09-06T08:54:56.586Z,22.67
2018-09-06T08:55:56.578Z,22.66
2018-09-06T08:56:56.568Z,22.73
2018-09-06T08:57:56.561Z,22.74
2018-09-06T08:58:56.556Z,22.81
2018-09-06T08:59:56.538Z,22.78
2018-09-06T09:00:56.532Z,22.77
2018-09-06T09:01:56.521Z,22.77
2018-09-06T09:02:56.710Z,22.73
2018-09-06T09:03:56.503Z,22.70
2018-09-06T09:04:56.490Z,22.73
2018-09-06T09:05:56.500Z,22.71
2018-09-06T09:06:56.471Z,22.71
2018-09-06T09:07:56.462Z,22.68
2018-09-06T09:08:56.454Z,22.77
2018-09-06T09:09:56.442Z,22.77
2018-09-06T09:10:56.483Z,22.83
2018-09-06T09:11:56.419Z,22.73
2018-09-06T09:12:56.427Z,22.86
2018-09-06T09:13:56.400Z,22.86
2018-09-06T09:14:56.392Z,22.83
2018-09-06T09:15:56.390Z,22.91
2018-09-06T09:16:56.402Z,22.91
2018-09-06T09:17:56.356Z,22.96
2018-09-06T09:18:56.346Z,22.99
2018-09-06T09:19:56.341Z,22.99
2018-09-06T09:20:56.336Z,22.98
2018-09-06T09:21:56.391Z,23.04
2018-09-06T09:22:56.318Z,23.04
2018-09-06T09:23:56.302Z,23.04
2018-09-06T09:24:56.290Z,23.03
2018-09-06T09:25:56.279Z,23.01
2018-09-06T09:26:56.268Z,23.06
2018-09-06T09:27:56.260Z,23.01
2018-09-06T09:28:56.250Z,22.99
2018-09-06T09:29:56.245Z,23.06
2018-09-06T09:30:56.233Z,23.04
2018-09-06T09:31:56.223Z,23.03
2018-09-06T09:32:56.206Z,23.03
2018-09-06T09:33:56.198Z,22.98
2018-09-06T09:34:56.188Z,23.06
2018-09-06T09:35:56.185Z,22.96
2018-09-06T09:36:56.168Z,23.04
2018-09-06T09:37:56.160Z,22.99
2018-09-06T09:38:56.150Z,22.96
2018-09-06T09:39:56.145Z,22.88
2018-09-06T09:40:56.129Z,22.78
2018-09-06T09:41:56.124Z,22.83
2018-09-06T09:42:56.112Z,22.77
2018-09-06T09:43:56.100Z,22.76
2018-09-06T09:44:56.088Z,22.70
2018-09-06T09:47:54.484Z,22.74
2018-09-06T09:49:33.993Z,22.59
2018-09-06T09:51:13.415Z,22.64
2018-09-06T09:52:13.388Z,22.61
2018-09-06T09:53:13.380Z,22.66
2018-09-06T09:54:13.457Z,22.61
2018-09-06T09:55:13.362Z,22.66
2018-09-06T09:56:13.351Z,22.61
2018-09-06T09:57:13.339Z,22.52
2018-09-06T09:58:13.338Z,22.66
2018-09-06T09:59:13.321Z,22.59
2018-09-06T10:00:13.310Z,22.53
2018-09-06T10:01:13.300Z,22.51
2018-09-06T10:02:13.289Z,22.48
2018-09-06T10:03:13.278Z,22.62
2018-09-06T10:04:13.264Z,22.49
2018-09-06T10:05:13.258Z,22.51
2018-09-06T10:06:13.251Z,22.52
2018-09-06T10:07:13.238Z,22.49
2018-09-06T10:08:13.227Z,22.36
2018-09-06T10:09:13.218Z,22.36
2018-09-06T10:10:13.210Z,22.43
2018-09-06T10:11:13.201Z,22.33
2018-09-06T10:12:13.190Z,22.31
2018-09-06T10:13:13.181Z,22.19
2018-09-06T10:14:13.162Z,22.25
2018-09-06T10:15:13.149Z,22.27
2018-09-06T10:16:13.140Z,22.25
2018-09-06T10:17:13.133Z,22.22
2018-09-06T10:18:13.143Z,22.27
2018-09-06T10:19:13.111Z,22.15
2018-09-06T10:20:13.098Z,22.12
2018-09-06T10:21:13.092Z,22.07
2018-09-06T10:22:13.077Z,22.12
2018-09-06T10:23:13.068Z,22.12
2018-09-06T10:24:13.056Z,22.13
2018-09-06T10:25:13.049Z,22.12
2018-09-06T10:26:13.036Z,22.21
2018-09-06T10:27:13.028Z,22.22
2018-09-06T10:28:13.014Z,22.30
2018-09-06T10:29:13.005Z,22.30
2018-09-06T10:30:12.997Z,22.19
2018-09-06T10:31:12.985Z,22.22
2018-09-06T10:32:12.978Z,22.36
2018-09-06T10:33:12.962Z,22.34
2018-09-06T10:34:12.951Z,22.41
2018-09-06T10:35:12.996Z,22.48
2018-09-06T10:36:12.933Z,22.46
2018-09-06T10:37:12.921Z,22.49
2018-09-06T10:38:12.912Z,22.49
2018-09-06T10:39:12.910Z,22.43
2018-09-06T10:40:12.892Z,22.46
2018-09-06T10:41:12.882Z,22.46
2018-09-06T10:42:12.872Z,22.34
2018-09-06T10:43:12.860Z,22.27
2018-09-06T10:44:12.849Z,22.37
2018-09-06T10:45:12.836Z,22.25
2018-09-06T10:46:12.827Z,22.23
2018-09-06T10:47:12.818Z,22.22
2018-09-06T10:48:12.808Z,22.16
2018-09-06T10:49:12.796Z,22.00
2018-09-06T10:50:12.785Z,21.98
2018-09-06T10:51:12.775Z,22.04
2018-09-06T10:52:12.764Z,21.98
2018-09-06T10:53:12.753Z,21.65
2018-09-06T10:54:12.742Z,21.30
2018-09-06T10:55:12.735Z,21.25
2018-09-06T10:56:12.729Z,21.23
2018-09-06T10:57:12.711Z,21.32
2018-09-06T10:58:12.699Z,21.19
2018-09-06T10:59:12.703Z,21.29
2018-09-06T11:00:12.684Z,21.35
2018-09-06T11:01:12.669Z,21.40
2018-09-06T11:02:12.657Z,21.41
2018-09-06T11:03:12.647Z,21.34
2018-09-06T11:04:12.638Z,21.34
2018-09-06T11:05:12.633Z,21.41
2018-09-06T11:06:12.627Z,21.22
2018-09-06T11:07:12.604Z,21.20
2018-09-06T11:08:12.681Z,21.23
2018-09-06T11:09:12.586Z,21.16
2018-09-06T11:10:12.571Z,20.98
2018-09-06T11:11:12.559Z,20.93
2018-09-06T11:12:12.552Z,20.90
2018-09-06T11:13:12.538Z,20.95
2018-09-06T11:14:12.528Z,20.71
2018-09-06T11:15:12.520Z,20.75
2018-09-06T11:16:12.505Z,20.68
2018-09-06T11:17:12.497Z,20.68
2018-09-06T11:18:12.496Z,20.82
2018-09-06T11:19:12.473Z,20.70
2018-09-06T11:20:12.460Z,20.73
2018-09-06T11:21:12.534Z,20.70
2018-09-06T11:22:12.809Z,20.74
2018-09-06T11:23:12.431Z,20.64
2018-09-06T11:24:12.418Z,20.63
2018-09-06T11:25:12.410Z,20.63
2018-09-06T11:26:12.393Z,20.70
2018-09-06T11:27:12.385Z,20.61
2018-09-06T11:28:12.375Z,20.65
2018-09-06T11:29:12.397Z,20.65
2018-09-06T11:30:12.350Z,20.73
2018-09-06T11:31:12.337Z,20.73
2018-09-06T11:32:12.332Z,20.63
2018-09-06T11:33:12.331Z,20.60
2018-09-06T11:34:12.305Z,20.63
2018-09-06T11:35:12.313Z,20.63
2018-09-06T11:36:12.283Z,20.65
2018-09-06T11:37:12.270Z,20.49
2018-09-06T11:38:12.318Z,20.39
2018-09-06T11:39:12.248Z,20.29
2018-09-06T11:40:12.345Z,20.27
2018-09-06T11:41:12.224Z,20.26
2018-09-06T11:42:12.335Z,20.25
2018-09-06T11:43:12.204Z,20.25
2018-09-06T11:44:12.191Z,20.33
2018-09-06T11:45:12.187Z,20.37
2018-09-06T11:46:12.169Z,20.34
2018-09-06T11:47:12.231Z,20.42
2018-09-06T11:48:12.146Z,20.26
2018-09-06T11:49:12.133Z,20.09
2018-09-06T11:50:12.125Z,20.08
2018-09-06T11:51:12.110Z,19.87
2018-09-06T11:52:12.100Z,19.77
2018-09-06T11:53:12.092Z,19.68
2018-09-06T11:54:12.076Z,19.75
2018-09-06T11:55:12.066Z,19.79
2018-09-06T11:56:12.054Z,19.78
2018-09-06T11:57:12.045Z,19.72
2018-09-06T11:58:12.034Z,19.68
2018-09-06T11:59:12.029Z,19.63
2018-09-06T12:00:12.009Z,19.77
2018-09-06T12:01:11.999Z,19.79
2018-09-06T12:02:12.060Z,19.75
2018-09-06T12:03:11.973Z,19.75
2018-09-06T12:04:11.982Z,19.86
2018-09-06T12:05:11.951Z,19.92
2018-09-06T12:06:11.961Z,19.94
2018-09-06T12:07:11.924Z,19.97
2018-09-06T12:08:11.919Z,19.92
2018-09-06T12:09:11.905Z,19.82
2018-09-06T12:10:11.892Z,19.77
2018-09-06T12:11:11.882Z,19.86
2018-09-06T12:12:11.870Z,19.90
2018-09-06T12:13:11.859Z,19.93
2018-09-06T12:14:11.841Z,19.81
2018-09-06T12:15:11.833Z,19.63
2018-09-06T12:16:11.822Z,19.53
2018-09-06T12:17:11.807Z,19.63
2018-09-06T12:18:11.798Z,19.60
2018-09-06T12:19:11.796Z,19.44
2018-09-06T12:20:11.775Z,19.50
2018-09-06T12:21:11.762Z,19.44
2018-09-06T12:22:11.753Z,19.52
2018-09-06T12:23:11.754Z,19.56
2018-09-06T12:24:11.734Z,19.60
2018-09-06T12:25:11.730Z,19.63
2018-09-06T12:26:11.705Z,19.81
2018-09-06T12:27:11.692Z,19.75
2018-09-06T12:28:11.679Z,19.79
2018-09-06T12:29:11.673Z,19.87
2018-09-06T12:30:11.657Z,19.93
2018-09-06T12:31:11.653Z,19.89
2018-09-06T12:32:11.634Z,20.02
2018-09-06T12:33:11.674Z,20.05
2018-09-06T12:34:11.609Z,19.96
2018-09-06T12:35:11.600Z,19.97
2018-09-06T12:36:11.596Z,20.09
2018-09-06T12:37:11.575Z,19.97
2018-09-06T12:38:11.561Z,20.02
2018-09-06T12:39:11.550Z,20.08
2018-09-06T12:40:11.541Z,20.08
2018-09-06T12:41:11.528Z,20.14
2018-09-06T12:42:11.519Z,19.92
2018-09-06T12:43:11.508Z,19.96
2018-09-06T12:44:11.494Z,20.17
2018-09-06T12:45:11.482Z,20.09
2018-09-06T12:46:11.492Z,20.18
2018-09-06T12:47:11.457Z,20.25
2018-09-06T12:48:11.453Z,20.11
2018-09-06T12:49:11.434Z,20.18
2018-09-06T12:50:11.422Z,20.22
2018-09-06T12:51:11.412Z,20.08
2018-09-06T12:52:11.413Z,20.07
2018-09-06T12:53:11.398Z,20.05
2018-09-06T12:54:11.395Z,20.07
2018-09-06T12:55:11.364Z,20.15